.
WxDataArchive / Data Records for 2008-04-07
2008-04-06 April 2008 2008-04-08

Data Records for Monday, 07 April 2008

Time	Temp	Chill	HIndex	Humid	Dewpt	 Wind 	HiWind	WindDir	Rain 	Barom 
-----	----	-----	------	-----	-----	------	------	-------	-----	----- 
00:00	44.2	44.2	44.2	82	39.1	1	2	90	0.00	29.866 
00:05	44.2	44.2	44.2	82	39.1	1	2	90	0.00	29.863 
00:10	44.1	44.1	44.1	82	39.0	1	2	90	0.00	29.860 
00:15	44.1	44.1	44.1	82	39.0	0	2	90	0.00	29.858 
00:20	43.9	43.9	43.9	83	39.1	0	1	90	0.00	29.856 
00:25	43.8	43.8	43.8	83	39.0	0	2	90	0.00	29.855 
00:30	43.6	43.6	43.6	83	38.8	0	1	90	0.00	29.864 
00:35	43.5	43.5	43.5	83	38.7	0	0	---	0.00	29.864 
00:40	43.3	43.3	43.3	84	38.8	0	1	90	0.00	29.866 
00:45	43.1	43.1	43.1	84	38.6	0	1	90	0.00	29.867 
00:50	42.9	42.9	42.9	84	38.4	0	0	---	0.00	29.866 
00:55	42.6	42.6	42.6	84	38.1	0	1	90	0.00	29.865 
01:00	42.3	42.3	42.3	85	38.1	0	1	90	0.00	29.866 
01:05	42.1	42.1	42.1	85	37.9	0	0	---	0.00	29.866 
01:10	41.8	41.8	41.8	85	37.6	0	0	---	0.00	29.866 
01:15	41.5	41.5	41.5	86	37.6	0	0	---	0.00	29.866 
01:20	41.2	41.2	41.2	86	37.3	0	0	---	0.00	29.869 
01:25	41.1	41.1	41.1	87	37.5	0	0	---	0.00	29.869 
01:30	40.8	40.8	40.8	87	37.2	0	0	---	0.00	29.865 
01:35	40.5	40.5	40.5	87	36.9	0	0	---	0.00	29.863 
01:40	40.3	40.3	40.3	88	37.0	0	0	---	0.00	29.862 
01:45	40.2	40.2	40.2	88	36.9	0	0	---	0.00	29.860 
01:50	39.9	39.9	39.9	88	36.6	0	0	---	0.00	29.859 
01:55	39.8	39.8	39.8	89	36.8	0	0	---	0.00	29.862 
02:00	39.6	39.6	39.6	89	36.6	0	0	---	0.00	29.860 
02:05	39.6	39.6	39.6	90	36.9	0	0	---	0.00	29.858 
02:10	39.5	39.5	39.5	90	36.8	0	0	---	0.00	29.856 
02:15	39.3	39.3	39.3	90	36.6	0	0	---	0.00	29.864 
02:20	39.5	39.5	39.5	91	37.1	0	0	---	0.00	29.866 
02:25	39.5	39.5	39.5	91	37.1	0	0	---	0.00	29.863 
02:30	39.3	39.3	39.3	91	36.9	0	0	---	0.00	29.865 
02:35	39.2	39.2	39.2	91	36.8	0	0	---	0.00	29.865 
02:40	39.1	39.1	39.1	91	36.7	0	0	---	0.00	29.862 
02:45	39.1	39.1	39.1	91	36.7	0	0	---	0.00	29.862 
02:50	39.1	39.1	39.1	92	37.0	0	0	---	0.00	29.860 
02:55	38.9	38.9	38.9	92	36.8	0	0	---	0.00	29.859 
03:00	38.6	38.6	38.6	92	36.5	0	0	---	0.00	29.860 
03:05	38.5	38.5	38.5	92	36.4	0	0	---	0.00	29.859 
03:10	38.3	38.3	38.3	92	36.2	0	0	---	0.00	29.857 
03:15	38.3	38.3	38.3	92	36.2	0	0	---	0.00	29.859 
03:20	38.2	38.2	38.2	92	36.1	0	0	---	0.00	29.861 
03:25	38.2	38.2	38.2	92	36.1	0	0	---	0.00	29.857 
03:30	38.0	38.0	38.0	92	35.9	0	0	---	0.00	29.858 
03:35	37.9	37.9	37.9	92	35.8	0	0	---	0.00	29.859 
03:40	37.8	37.8	37.8	92	35.7	0	0	---	0.00	29.860 
03:45	37.6	37.6	37.6	92	35.5	0	0	---	0.00	29.859 
03:50	37.5	37.5	37.5	92	35.4	0	0	---	0.00	29.859 
03:55	37.5	37.5	37.5	93	35.7	0	0	---	0.00	29.858 
04:00	37.5	37.5	37.5	93	35.7	0	0	---	0.00	29.857 
04:05	37.6	37.6	37.6	93	35.8	0	0	---	0.00	29.857 
04:10	37.5	37.5	37.5	93	35.7	0	0	---	0.00	29.857 
04:15	37.3	37.3	37.3	93	35.5	0	0	---	0.00	29.860 
04:20	37.3	37.3	37.3	93	35.5	0	0	---	0.00	29.862 
04:25	37.6	37.6	37.6	94	36.0	0	0	---	0.00	29.866 
04:30	37.6	37.6	37.6	94	36.0	0	0	---	0.00	29.861 
04:35	37.6	37.6	37.6	94	36.0	0	0	---	0.00	29.861 
04:40	37.6	37.6	37.6	94	36.0	0	0	---	0.00	29.860 
04:45	37.5	37.5	37.5	94	35.9	0	0	---	0.00	29.860 
04:50	37.3	37.3	37.3	94	35.7	0	0	---	0.00	29.856 
04:55	37.2	37.2	37.2	94	35.6	0	0	---	0.00	29.858 
05:00	37.2	37.2	37.2	94	35.6	0	0	---	0.00	29.858 
05:05	37.2	37.2	37.2	94	35.6	0	0	---	0.00	29.856 
05:10	37.3	37.3	37.3	94	35.7	0	0	---	0.00	29.858 
05:15	37.3	37.3	37.3	94	35.7	0	0	---	0.00	29.858 
05:20	37.3	37.3	37.3	94	35.7	0	0	---	0.00	29.857 
05:25	37.2	37.2	37.2	94	35.6	0	0	---	0.00	29.857 
05:30	37.0	37.0	37.0	94	35.4	0	0	---	0.00	29.857 
05:35	36.9	36.9	36.9	94	35.3	0	0	---	0.00	29.859 
05:40	36.9	36.9	36.9	94	35.3	0	0	---	0.00	29.859 
05:45	36.9	36.9	36.9	95	35.6	0	0	---	0.00	29.859 
05:50	36.9	36.9	36.9	94	35.3	0	0	---	0.00	29.863 
05:55	36.8	36.8	36.8	94	35.2	0	0	---	0.00	29.865 
06:00	36.8	36.8	36.8	94	35.2	0	0	---	0.00	29.866 
06:05	36.8	36.8	36.8	95	35.5	0	0	---	0.00	29.870 
06:10	36.8	36.8	36.8	95	35.5	0	0	---	0.00	29.872 
06:15	36.8	36.8	36.8	95	35.5	0	0	---	0.00	29.873 
06:20	36.8	36.8	36.8	95	35.5	0	0	---	0.00	29.872 
06:25	36.9	36.9	36.9	95	35.6	0	0	---	0.00	29.873 
06:30	36.9	36.9	36.9	95	35.6	0	0	---	0.00	29.875 
06:35	37.2	37.2	37.2	95	35.9	0	0	---	0.00	29.877 
06:40	37.6	37.6	37.6	96	36.6	0	0	---	0.00	29.876 
06:45	37.8	37.8	37.8	95	36.5	0	0	---	0.00	29.879 
06:50	38.0	38.0	38.0	96	37.0	0	0	---	0.00	29.876 
06:55	38.5	38.5	38.5	96	37.5	0	0	---	0.00	29.879 
07:00	38.9	38.9	38.9	96	37.9	0	0	---	0.00	29.881 
07:05	39.5	39.5	39.5	96	38.5	0	0	---	0.00	29.890 
07:10	40.1	40.1	40.1	96	39.1	0	0	---	0.00	29.890 
07:15	41.2	41.2	41.2	96	40.1	0	0	---	0.00	29.889 
07:20	42.3	42.3	42.3	96	41.2	0	0	---	0.00	29.888 
07:25	43.9	43.9	43.9	97	43.1	0	1	90	0.00	29.884 
07:30	45.2	45.2	45.2	96	44.1	0	1	90	0.00	29.880 
07:35	46.4	46.4	46.4	94	44.8	0	2	90	0.00	29.881 
07:40	47.4	47.4	47.4	92	45.2	0	1	112	0.00	29.882 
07:45	48.2	48.2	48.2	90	45.4	0	1	112	0.00	29.881 
07:50	48.9	48.9	48.9	88	45.5	0	3	112	0.00	29.881 
07:55	50.1	50.1	50.1	85	45.8	0	1	112	0.00	29.881 
08:00	51.3	51.3	51.3	81	45.7	1	3	112	0.00	29.881 
08:05	52.5	52.5	52.5	77	45.5	1	4	68	0.00	29.883 
08:10	53.3	53.3	53.3	74	45.2	1	4	45	0.00	29.881 
08:15	54.2	54.2	54.2	72	45.4	1	4	68	0.00	29.880 
08:20	54.8	54.8	54.8	70	45.2	2	7	90	0.00	29.877 
08:25	55.1	55.1	55.1	70	45.5	1	7	112	0.00	29.875 
08:30	55.3	55.3	55.3	69	45.3	2	6	248	0.00	29.870 
08:35	55.6	55.6	55.6	69	45.6	1	7	315	0.00	29.871 
08:40	55.7	55.7	55.7	69	45.7	1	6	248	0.00	29.867 
08:45	56.0	56.0	56.0	69	46.0	2	9	248	0.00	29.864 
08:50	56.5	56.5	56.5	69	46.5	1	4	248	0.00	29.859 
08:55	56.7	56.7	56.7	68	46.3	2	7	248	0.00	29.853 
09:00	57.3	57.3	57.3	68	46.8	2	4	248	0.00	29.848 
09:05	57.8	57.8	57.8	67	46.9	2	7	270	0.00	29.852 
09:10	58.1	58.1	58.1	65	46.4	2	6	248	0.00	29.852 
09:15	58.1	58.1	58.1	66	46.8	3	9	248	0.00	29.859 
09:20	58.3	58.3	58.3	66	47.0	3	7	248	0.00	29.862 
09:25	58.4	58.4	58.4	66	47.1	2	7	248	0.00	29.863 
09:30	58.9	58.9	58.9	64	46.7	4	9	248	0.00	29.865 
09:35	58.9	58.9	58.9	65	47.2	4	7	248	0.00	29.864 
09:40	59.0	59.0	59.0	64	46.8	3	10	248	0.00	29.860 
09:45	59.2	59.2	59.2	64	47.0	4	9	270	0.00	29.865 
09:50	59.5	59.5	59.5	64	47.3	4	9	248	0.00	29.864 
09:55	59.8	59.8	59.8	63	47.2	3	9	248	0.00	29.865 
10:00	60.1	60.1	60.1	62	47.0	4	10	248	0.00	29.878 
10:05	60.2	60.2	60.2	62	47.1	4	11	248	0.00	29.882 
10:10	60.5	60.5	60.5	62	47.4	4	13	270	0.00	29.885 
10:15	61.0	61.0	61.0	63	48.3	4	10	248	0.00	29.886 
10:20	61.0	61.0	61.0	61	47.5	5	9	248	0.00	29.890 
10:25	61.3	61.3	61.3	61	47.7	5	13	270	0.00	29.891 
10:30	61.8	61.8	61.8	61	48.2	3	9	248	0.00	29.889 
10:35	62.3	62.3	62.3	60	48.2	4	9	270	0.00	29.886 
10:40	62.6	62.6	62.6	60	48.5	3	7	248	0.00	29.885 
10:45	62.9	62.9	62.9	59	48.3	3	9	248	0.00	29.880 
10:50	63.2	63.2	63.2	58	48.2	3	8	248	0.00	29.879 
10:55	63.5	63.5	63.5	59	48.9	3	7	248	0.00	29.878 
11:00	63.7	63.7	63.7	61	50.0	3	7	248	0.00	29.875 
11:05	64.2	64.2	64.2	56	48.2	3	12	248	0.00	29.878 
11:10	64.5	64.5	64.5	57	48.9	2	6	248	0.00	29.878 
11:15	64.8	64.8	64.8	56	48.7	3	10	248	0.00	29.878 
11:20	65.0	65.0	65.0	54	47.9	4	13	248	0.00	29.876 
11:25	65.2	65.2	65.2	55	48.6	3	10	248	0.00	29.869 
11:30	65.3	65.3	65.3	55	48.7	3	10	248	0.00	29.872 
11:35	65.8	65.8	65.8	58	50.6	2	6	248	0.00	29.868 
11:40	66.3	66.3	66.3	55	49.6	3	7	68	0.00	29.869 
11:45	66.4	66.4	66.4	57	50.7	2	5	0	0.00	29.873 
11:50	66.8	66.8	66.8	53	49.1	3	9	248	0.00	29.872 
11:55	66.8	66.8	66.8	54	49.6	3	6	248	0.00	29.876 
12:00	67.3	67.3	67.3	55	50.6	3	6	270	0.00	29.873 
12:05	67.8	67.8	67.8	54	50.5	2	5	248	0.00	29.874 
12:10	67.9	67.9	67.9	50	48.6	3	10	270	0.00	29.873 
12:15	68.1	68.1	68.1	52	49.8	2	5	270	0.00	29.870 
12:20	68.4	68.4	68.4	51	49.6	3	12	248	0.00	29.874 
12:25	68.4	68.4	68.4	52	50.1	3	11	248	0.00	29.871 
12:30	67.8	67.8	67.8	50	48.5	4	10	248	0.00	29.872 
12:35	67.8	67.8	67.8	50	48.5	4	9	248	0.00	29.869 
12:40	68.3	68.3	68.3	48	47.8	3	7	225	0.00	29.871 
12:45	68.4	68.4	68.4	45	46.2	4	10	248	0.00	29.875 
12:50	68.4	68.4	68.4	48	47.9	4	12	248	0.00	29.877 
12:55	68.9	68.9	68.9	44	46.1	5	16	248	0.00	29.878 
13:00	68.9	68.9	68.9	43	45.5	5	11	248	0.00	29.878 
13:05	68.6	68.6	68.6	43	45.2	5	11	248	0.00	29.880 
13:10	68.6	68.6	68.6	46	47.0	4	10	270	0.00	29.879 
13:15	68.1	68.1	68.1	46	46.5	6	13	270	0.00	29.880 
13:20	68.3	68.3	68.3	45	46.1	5	11	248	0.00	29.879 
13:25	68.4	68.4	68.4	45	46.2	5	12	248	0.00	29.877 
13:30	69.1	69.1	69.1	48	48.6	4	10	248	0.00	29.878 
13:35	69.1	69.1	69.1	47	48.0	4	10	248	0.00	29.878 
13:40	68.4	68.4	68.4	46	46.8	5	10	248	0.00	29.877 
13:45	69.3	69.3	69.3	46	47.6	4	11	248	0.00	29.878 
13:50	69.9	69.9	69.9	41	45.1	6	17	248	0.00	29.876 
13:55	69.8	69.8	69.8	42	45.7	4	15	270	0.00	29.875 
14:00	70.1	70.1	70.1	44	47.2	4	11	248	0.00	29.871 
14:05	70.6	70.6	70.6	41	45.7	4	12	270	0.00	29.872 
14:10	70.4	70.4	70.4	43	46.8	4	10	248	0.00	29.875 
14:15	70.6	70.6	70.6	41	45.7	3	10	248	0.00	29.871 
14:20	69.9	69.9	69.9	42	45.8	4	13	270	0.00	29.877 
14:25	69.3	69.3	69.3	44	46.4	5	11	248	0.00	29.875 
14:30	69.8	69.8	69.8	43	46.3	5	11	248	0.00	29.874 
14:35	69.3	69.3	69.3	42	45.2	5	16	270	0.00	29.875 
14:40	69.8	69.8	69.8	42	45.7	5	13	248	0.00	29.871 
14:45	69.6	69.6	69.6	43	46.1	5	12	270	0.00	29.874 
14:50	69.4	69.4	69.4	43	45.9	4	11	248	0.00	29.875 
14:55	69.1	69.1	69.1	42	45.0	4	11	248	0.00	29.875 
15:00	69.3	69.3	69.3	42	45.2	3	7	248	0.00	29.876 
15:05	70.1	70.1	70.1	40	44.6	3	9	248	0.00	29.872 
15:10	70.4	70.4	70.4	41	45.6	2	5	248	0.00	29.872 
15:15	70.4	70.4	70.4	38	43.6	5	12	270	0.00	29.875 
15:20	69.8	69.8	69.8	39	43.7	5	11	248	0.00	29.875 
15:25	69.9	69.9	69.9	41	45.1	4	11	248	0.00	29.873 
15:30	70.1	70.1	70.1	40	44.6	4	10	270	0.00	29.871 
15:35	70.3	70.3	70.3	42	46.1	4	14	248	0.00	29.874 
15:40	70.1	70.1	70.1	37	42.6	5	12	248	0.00	29.875 
15:45	70.6	70.6	70.6	39	44.4	3	6	248	0.00	29.876 
15:50	70.8	70.8	70.8	34	41.0	4	13	248	0.00	29.878 
15:55	70.3	70.3	70.3	31	38.2	7	17	248	0.00	29.879 
16:00	69.9	69.9	69.9	33	39.5	7	15	270	0.00	29.880 
16:05	69.6	69.6	69.6	33	39.2	6	15	248	0.00	29.887 
16:10	69.4	69.4	69.4	34	39.8	6	14	270	0.00	29.885 
16:15	69.6	69.6	69.6	35	40.7	3	12	270	0.00	29.888 
16:20	69.3	69.3	69.3	33	39.0	3	9	270	0.00	29.888 
16:25	69.4	69.4	69.4	33	39.0	4	11	270	0.00	29.891 
16:30	69.3	69.3	69.3	32	38.2	5	15	270	0.00	29.894 
16:35	69.1	69.1	69.1	29	35.5	4	18	248	0.00	29.892 
16:40	68.6	68.6	68.6	29	35.1	5	14	270	0.00	29.896 
16:45	68.4	68.4	68.4	30	35.7	4	10	270	0.00	29.895 
16:50	68.3	68.3	68.3	30	35.7	5	11	270	0.00	29.897 
16:55	68.4	68.4	68.4	28	34.0	3	11	270	0.00	29.898 
17:00	68.3	68.3	68.3	27	33.0	3	8	270	0.00	29.895 
17:05	68.3	68.3	68.3	27	33.0	4	7	270	0.00	29.893 
17:10	68.3	68.3	68.3	27	33.0	3	12	248	0.00	29.891 
17:15	68.1	68.1	68.1	27	32.9	4	14	225	0.00	29.891 
17:20	67.6	67.6	67.6	27	32.4	5	17	270	0.00	29.893 
17:25	67.4	67.4	67.4	25	30.4	6	14	270	0.00	29.899 
17:30	67.1	67.1	67.1	25	30.1	5	12	270	0.00	29.900 
17:35	66.9	66.9	66.9	26	30.9	4	13	270	0.00	29.902 
17:40	66.6	66.6	66.6	24	28.7	5	13	270	0.00	29.899 
17:45	66.6	66.6	66.6	25	29.7	3	10	270	0.00	29.899 
17:50	66.4	66.4	66.4	25	29.5	3	10	248	0.00	29.901 
17:55	66.3	66.3	66.3	25	29.4	4	9	248	0.00	29.902 
18:00	66.0	66.0	66.0	25	29.2	4	13	248	0.00	29.913 
18:05	65.6	65.6	65.6	26	29.8	3	11	270	0.00	29.910 
18:10	65.3	65.3	65.3	25	28.6	4	12	270	0.00	29.911 
18:15	65.2	65.2	65.2	27	30.4	2	6	270	0.00	29.914 
18:20	64.8	64.8	64.8	27	30.0	4	10	248	0.00	29.914 
18:25	64.7	64.7	64.7	28	30.8	3	9	248	0.00	29.916 
18:30	64.3	64.3	64.3	28	30.5	2	5	248	0.00	29.918 
18:35	64.0	64.0	64.0	27	29.4	3	7	270	0.00	29.922 
18:40	63.5	63.5	63.5	28	29.8	2	4	248	0.00	29.926 
18:45	63.2	63.2	63.2	28	29.6	3	9	270	0.00	29.929 
18:50	62.9	62.9	62.9	29	30.2	3	9	270	0.00	29.932 
18:55	62.4	62.4	62.4	30	30.6	2	6	248	0.00	29.932 
19:00	62.1	62.1	62.1	30	30.3	3	7	270	0.00	29.934 
19:05	62.0	62.0	62.0	30	30.2	3	5	270	0.00	29.925 
19:10	61.6	61.6	61.6	31	30.7	2	7	248	0.00	29.925 
19:15	61.3	61.3	61.3	31	30.4	1	4	248	0.00	29.925 
19:20	61.0	61.0	61.0	32	30.9	1	3	248	0.00	29.927 
19:25	60.5	60.5	60.5	33	31.3	1	3	248	0.00	29.929 
19:30	60.2	60.2	60.2	34	31.7	1	4	270	0.00	29.931 
19:35	59.9	59.9	59.9	35	32.2	1	3	248	0.00	29.932 
19:40	59.8	59.8	59.8	37	33.5	1	3	270	0.00	29.937 
19:45	59.3	59.3	59.3	38	33.7	0	1	270	0.00	29.940 
19:50	59.0	59.0	59.0	39	34.1	0	3	270	0.00	29.941 
19:55	58.7	58.7	58.7	40	34.4	0	2	270	0.00	29.941 
20:00	58.4	58.4	58.4	40	34.2	0	1	270	0.00	29.943 
20:05	58.3	58.3	58.3	41	34.7	0	1	270	0.00	29.939 
20:10	58.0	58.0	58.0	42	35.0	0	1	270	0.00	29.941 
20:15	57.5	57.5	57.5	43	35.2	0	1	270	0.00	29.944 
20:20	57.0	57.0	57.0	44	35.3	0	0	---	0.00	29.947 
20:25	56.5	56.5	56.5	44	34.9	0	1	270	0.00	29.950 
20:30	56.0	56.0	56.0	45	35.0	0	1	270	0.00	29.955 
20:35	55.7	55.7	55.7	46	35.2	0	1	270	0.00	29.956 
20:40	55.6	55.6	55.6	46	35.2	0	2	292	0.00	29.957 
20:45	55.7	55.7	55.7	46	35.2	1	3	292	0.00	29.959 
20:50	55.6	55.6	55.6	45	34.6	1	4	292	0.00	29.961 
20:55	55.3	55.3	55.3	46	34.9	1	3	292	0.00	29.970 
21:00	55.0	55.0	55.0	46	34.6	1	3	315	0.00	29.972 
21:05	54.5	54.5	54.5	46	34.1	0	2	338	0.00	29.972 
21:10	54.1	54.1	54.1	47	34.3	0	2	338	0.00	29.972 
21:15	53.8	53.8	53.8	47	34.0	0	2	338	0.00	29.975 
21:20	53.5	53.5	53.5	48	34.3	1	3	270	0.00	29.981 
21:25	53.2	53.2	53.2	49	34.5	1	3	270	0.00	29.983 
21:30	52.8	52.8	52.8	50	34.7	1	3	270	0.00	29.984 
21:35	52.3	52.3	52.3	51	34.7	0	2	270	0.00	29.984 
21:40	51.9	51.9	51.9	52	34.8	0	1	270	0.00	29.982 
21:45	51.6	51.6	51.6	53	35.0	0	3	292	0.00	29.984 
21:50	51.1	51.1	51.1	54	35.0	0	1	292	0.00	29.983 
21:55	50.7	50.7	50.7	54	34.7	0	1	292	0.00	29.985 
22:00	50.2	50.2	50.2	54	34.2	0	0	---	0.00	29.986 
22:05	49.8	49.8	49.8	56	34.7	0	0	---	0.00	29.984 
22:10	49.2	49.2	49.2	57	34.6	0	0	---	0.00	29.976 
22:15	48.8	48.8	48.8	57	34.3	0	0	---	0.00	29.980 
22:20	48.2	48.2	48.2	58	34.1	0	0	---	0.00	29.982 
22:25	47.9	47.9	47.9	59	34.3	0	0	---	0.00	29.983 
22:30	47.6	47.6	47.6	60	34.4	0	0	---	0.00	29.984 
22:35	47.3	47.3	47.3	60	34.1	0	1	292	0.00	29.984 
22:40	47.1	47.1	47.1	60	33.9	0	1	292	0.00	29.987 
22:45	47.0	47.0	47.0	60	33.8	0	1	292	0.00	29.987 
22:50	47.0	47.0	47.0	60	33.8	0	1	292	0.00	29.980 
22:55	46.8	46.8	46.8	60	33.7	0	2	315	0.00	29.975 
23:00	46.8	46.8	46.8	60	33.7	0	1	315	0.00	29.975 
23:05	46.7	46.7	46.7	60	33.6	0	0	---	0.00	29.969 
23:10	46.4	46.4	46.4	61	33.7	0	0	---	0.00	29.969 
23:15	46.1	46.1	46.1	61	33.4	0	1	315	0.00	29.975 
23:20	46.0	46.0	46.0	62	33.7	0	0	---	0.00	29.977 
23:25	45.7	45.7	45.7	62	33.4	0	1	315	0.00	29.986 
23:30	45.5	45.5	45.5	62	33.2	0	1	315	0.00	29.988 
23:35	45.4	45.4	45.4	62	33.2	0	0	---	0.00	29.990 
23:40	45.2	45.2	45.2	63	33.4	0	0	---	0.00	29.992 
23:45	44.9	44.9	44.9	63	33.1	0	0	---	0.00	30.000 
23:50	44.6	44.6	44.6	64	33.2	0	0	---	0.00	30.002 
23:55	44.5	44.5	44.5	64	33.1	0	0	---	0.00	30.008 

CoCoRaHS
IN-AL-39
A2 Web Hosting
Creative Commons License
GoDaddy
Look for:

loaded 2017-12-13 02:53:44 • last modified 2010-11-18 10:43:29
Privacy PolicyDisclaimer
• wx.awcolley.com is powered by PmWiki v.2002016 •
• all content (unless otherwise noted) © 2017 A W Colley